sensor_id;sensor_type;location;lat;lon;timestamp;temperature;humidity
70309;DHT22;57716;50.896;4.440;2023-02-28T00:00:27;-0.40;99.90
70309;DHT22;57716;50.896;4.440;2023-02-28T00:02:53;-0.20;99.90
70309;DHT22;57716;50.896;4.440;2023-02-28T00:05:20;-0.40;99.90
70309;DHT22;57716;50.896;4.440;2023-02-28T00:07:47;-0.40;99.90
70309;DHT22;57716;50.896;4.440;2023-02-28T00:10:15;-0.30;99.90
70309;DHT22;57716;50.896;4.440;2023-02-28T00:12:44;-0.30;99.90
70309;DHT22;57716;50.896;4.440;2023-02-28T00:15:11;-0.40;99.90
70309;DHT22;57716;50.896;4.440;2023-02-28T00:17:37;-0.50;99.90
70309;DHT22;57716;50.896;4.440;2023-02-28T00:20:04;-0.30;99.90
70309;DHT22;57716;50.896;4.440;2023-02-28T00:22:31;-0.40;99.90
70309;DHT22;57716;50.896;4.440;2023-02-28T00:24:57;-0.40;99.90
70309;DHT22;57716;50.896;4.440;2023-02-28T00:27:23;-0.30;99.90
70309;DHT22;57716;50.896;4.440;2023-02-28T00:29:49;-0.50;99.90
70309;DHT22;57716;50.896;4.440;2023-02-28T00:32:14;-0.50;99.90
70309;DHT22;57716;50.896;4.440;2023-02-28T00:34:40;-0.40;99.90
70309;DHT22;57716;50.896;4.440;2023-02-28T00:37:07;-0.60;99.90
70309;DHT22;57716;50.896;4.440;2023-02-28T00:39:35;-0.50;99.90
70309;DHT22;57716;50.896;4.440;2023-02-28T00:42:02;-0.60;99.90
70309;DHT22;57716;50.896;4.440;2023-02-28T00:44:29;-0.60;99.90
70309;DHT22;57716;50.896;4.440;2023-02-28T00:46:55;-0.50;99.90
70309;DHT22;57716;50.896;4.440;2023-02-28T00:49:22;-0.50;99.90
70309;DHT22;57716;50.896;4.440;2023-02-28T00:51:48;-0.40;99.90
70309;DHT22;57716;50.896;4.440;2023-02-28T00:54:14;-0.60;99.90
70309;DHT22;57716;50.896;4.440;2023-02-28T00:56:40;-0.50;99.90
70309;DHT22;57716;50.896;4.440;2023-02-28T00:59:06;-0.50;99.90
70309;DHT22;57716;50.896;4.440;2023-02-28T01:01:32;-0.20;99.90
70309;DHT22;57716;50.896;4.440;2023-02-28T01:03:58;-0.50;99.90
70309;DHT22;57716;50.896;4.440;2023-02-28T01:06:23;-0.60;99.90
70309;DHT22;57716;50.896;4.440;2023-02-28T01:08:49;-0.60;99.90
70309;DHT22;57716;50.896;4.440;2023-02-28T01:11:17;-0.40;99.90
70309;DHT22;57716;50.896;4.440;2023-02-28T01:13:44;-0.60;99.90
70309;DHT22;57716;50.896;4.440;2023-02-28T01:16:10;-0.60;99.90
70309;DHT22;57716;50.896;4.440;2023-02-28T01:18:37;-0.70;99.90
70309;DHT22;57716;50.896;4.440;2023-02-28T01:21:05;-0.80;99.90
70309;DHT22;57716;50.896;4.440;2023-02-28T01:23:31;-0.90;99.90
70309;DHT22;57716;50.896;4.440;2023-02-28T01:25:57;-0.80;99.90
70309;DHT22;57716;50.896;4.440;2023-02-28T01:28:23;-0.90;99.90
70309;DHT22;57716;50.896;4.440;2023-02-28T01:30:49;-0.90;99.90
70309;DHT22;57716;50.896;4.440;2023-02-28T01:33:15;-0.90;99.90
70309;DHT22;57716;50.896;4.440;2023-02-28T01:35:41;-1.00;99.90
70309;DHT22;57716;50.896;4.440;2023-02-28T01:38:07;-1.00;99.90
70309;DHT22;57716;50.896;4.440;2023-02-28T01:40:32;-1.00;99.90
70309;DHT22;57716;50.896;4.440;2023-02-28T01:42:58;-0.90;99.90
70309;DHT22;57716;50.896;4.440;2023-02-28T01:45:31;-1.00;99.90
70309;DHT22;57716;50.896;4.440;2023-02-28T01:48:07;-1.00;99.90
70309;DHT22;57716;50.896;4.440;2023-02-28T01:50:40;-0.90;99.90
70309;DHT22;57716;50.896;4.440;2023-02-28T01:53:10;-1.00;99.90
70309;DHT22;57716;50.896;4.440;2023-02-28T01:55:39;-0.80;99.90
70309;DHT22;57716;50.896;4.440;2023-02-28T01:58:07;-0.80;99.90
70309;DHT22;57716;50.896;4.440;2023-02-28T02:00:34;-0.90;99.90
70309;DHT22;57716;50.896;4.440;2023-02-28T02:03:06;-1.00;99.90
70309;DHT22;57716;50.896;4.440;2023-02-28T02:05:32;-1.00;99.90
70309;DHT22;57716;50.896;4.440;2023-02-28T02:08:04;-1.00;99.90
70309;DHT22;57716;50.896;4.440;2023-02-28T02:10:42;-1.00;99.90
70309;DHT22;57716;50.896;4.440;2023-02-28T02:24:01;-1.10;99.90
70309;DHT22;57716;50.896;4.440;2023-02-28T02:32:20;-1.00;99.90
70309;DHT22;57716;50.896;4.440;2023-02-28T02:40:20;-1.10;99.90
70309;DHT22;57716;50.896;4.440;2023-02-28T02:42:56;-1.10;99.90
70309;DHT22;57716;50.896;4.440;2023-02-28T02:45:42;-1.10;99.90
70309;DHT22;57716;50.896;4.440;2023-02-28T02:48:14;-1.20;99.90
70309;DHT22;57716;50.896;4.440;2023-02-28T02:50:54;-1.20;99.90
70309;DHT22;57716;50.896;4.440;2023-02-28T02:53:27;-1.10;99.90
70309;DHT22;57716;50.896;4.440;2023-02-28T02:55:55;-1.10;99.90
70309;DHT22;57716;50.896;4.440;2023-02-28T02:58:28;-1.10;99.90
70309;DHT22;57716;50.896;4.440;2023-02-28T03:01:00;-1.10;99.90
70309;DHT22;57716;50.896;4.440;2023-02-28T03:03:28;-1.20;99.90
70309;DHT22;57716;50.896;4.440;2023-02-28T03:05:59;-1.00;99.90
70309;DHT22;57716;50.896;4.440;2023-02-28T03:08:26;-0.90;99.90
70309;DHT22;57716;50.896;4.440;2023-02-28T03:10:58;-1.10;99.90
70309;DHT22;57716;50.896;4.440;2023-02-28T03:16:29;-1.40;99.90
70309;DHT22;57716;50.896;4.440;2023-02-28T03:27:29;-1.20;99.90
70309;DHT22;57716;50.896;4.440;2023-02-28T03:30:14;-1.30;99.90
70309;DHT22;57716;50.896;4.440;2023-02-28T03:32:52;-1.50;99.90
70309;DHT22;57716;50.896;4.440;2023-02-28T03:35:23;-1.60;99.90
70309;DHT22;57716;50.896;4.440;2023-02-28T03:37:53;-1.60;99.90
70309;DHT22;57716;50.896;4.440;2023-02-28T03:40:23;-1.50;99.90
70309;DHT22;57716;50.896;4.440;2023-02-28T03:42:55;-1.60;99.90
70309;DHT22;57716;50.896;4.440;2023-02-28T03:45:26;-1.60;99.90
70309;DHT22;57716;50.896;4.440;2023-02-28T03:48:24;-1.60;99.90
70309;DHT22;57716;50.896;4.440;2023-02-28T03:50:53;-1.70;99.90
70309;DHT22;57716;50.896;4.440;2023-02-28T03:53:34;-1.80;99.90
70309;DHT22;57716;50.896;4.440;2023-02-28T03:56:16;-1.70;99.90
70309;DHT22;57716;50.896;4.440;2023-02-28T03:58:57;-1.50;99.90
70309;DHT22;57716;50.896;4.440;2023-02-28T04:04:02;-1.10;99.90
70309;DHT22;57716;50.896;4.440;2023-02-28T04:06:31;-1.20;99.90
70309;DHT22;57716;50.896;4.440;2023-02-28T04:08:57;-1.00;99.90
70309;DHT22;57716;50.896;4.440;2023-02-28T04:11:29;-1.10;99.90
70309;DHT22;57716;50.896;4.440;2023-02-28T04:13:55;-1.30;99.90
70309;DHT22;57716;50.896;4.440;2023-02-28T04:16:21;-1.40;99.90
70309;DHT22;57716;50.896;4.440;2023-02-28T04:18:47;-1.60;99.90
70309;DHT22;57716;50.896;4.440;2023-02-28T04:21:13;-1.50;99.90
70309;DHT22;57716;50.896;4.440;2023-02-28T04:23:39;-1.50;99.90
70309;DHT22;57716;50.896;4.440;2023-02-28T04:26:05;-1.60;99.90
70309;DHT22;57716;50.896;4.440;2023-02-28T04:28:32;-1.60;99.90
70309;DHT22;57716;50.896;4.440;2023-02-28T04:30:59;-1.80;99.90
70309;DHT22;57716;50.896;4.440;2023-02-28T04:33:25;-1.90;99.90
70309;DHT22;57716;50.896;4.440;2023-02-28T04:36:06;-2.00;99.90
70309;DHT22;57716;50.896;4.440;2023-02-28T04:38:36;-1.90;99.90
70309;DHT22;57716;50.896;4.440;2023-02-28T04:41:03;-1.80;99.90
70309;DHT22;57716;50.896;4.440;2023-02-28T04:43:29;-1.80;99.90
70309;DHT22;57716;50.896;4.440;2023-02-28T04:45:57;-1.80;99.90
70309;DHT22;57716;50.896;4.440;2023-02-28T04:48:24;-1.60;99.90
70309;DHT22;57716;50.896;4.440;2023-02-28T04:50:50;-1.60;99.90
70309;DHT22;57716;50.896;4.440;2023-02-28T04:53:16;-1.20;99.90
70309;DHT22;57716;50.896;4.440;2023-02-28T04:55:42;-1.30;99.90
70309;DHT22;57716;50.896;4.440;2023-02-28T04:58:08;-1.20;99.90
70309;DHT22;57716;50.896;4.440;2023-02-28T05:00:34;-0.90;99.90
70309;DHT22;57716;50.896;4.440;2023-02-28T05:03:00;-1.00;99.90
70309;DHT22;57716;50.896;4.440;2023-02-28T05:05:25;-0.90;99.90
70309;DHT22;57716;50.896;4.440;2023-02-28T05:07:51;-0.70;99.90
70309;DHT22;57716;50.896;4.440;2023-02-28T05:10:19;-0.60;99.90
70309;DHT22;57716;50.896;4.440;2023-02-28T05:12:45;-0.70;99.90
70309;DHT22;57716;50.896;4.440;2023-02-28T05:15:14;-0.60;99.90
70309;DHT22;57716;50.896;4.440;2023-02-28T05:17:40;-0.30;99.90
70309;DHT22;57716;50.896;4.440;2023-02-28T05:20:06;-0.20;99.90
70309;DHT22;57716;50.896;4.440;2023-02-28T05:22:34;-0.30;99.90
70309;DHT22;57716;50.896;4.440;2023-02-28T05:24:59;-0.30;99.90
70309;DHT22;57716;50.896;4.440;2023-02-28T05:27:25;-0.30;99.90
70309;DHT22;57716;50.896;4.440;2023-02-28T05:29:51;-0.20;99.90
70309;DHT22;57716;50.896;4.440;2023-02-28T05:32:16;-0.30;99.90
70309;DHT22;57716;50.896;4.440;2023-02-28T05:34:42;-0.30;99.90
70309;DHT22;57716;50.896;4.440;2023-02-28T05:37:12;-0.30;99.90
70309;DHT22;57716;50.896;4.440;2023-02-28T05:39:38;-0.20;99.90
70309;DHT22;57716;50.896;4.440;2023-02-28T05:42:04;-0.10;99.90
70309;DHT22;57716;50.896;4.440;2023-02-28T05:44:30;0.00;99.90
70309;DHT22;57716;50.896;4.440;2023-02-28T05:46:56;0.00;99.90
70309;DHT22;57716;50.896;4.440;2023-02-28T05:49:22;0.30;99.90
70309;DHT22;57716;50.896;4.440;2023-02-28T05:51:48;0.20;99.90
70309;DHT22;57716;50.896;4.440;2023-02-28T05:54:14;0.20;99.90
70309;DHT22;57716;50.896;4.440;2023-02-28T05:56:40;0.20;99.90
70309;DHT22;57716;50.896;4.440;2023-02-28T05:59:09;0.30;99.90
70309;DHT22;57716;50.896;4.440;2023-02-28T06:01:44;0.20;99.90
70309;DHT22;57716;50.896;4.440;2023-02-28T06:04:19;0.40;99.90
70309;DHT22;57716;50.896;4.440;2023-02-28T06:06:46;0.20;99.90
70309;DHT22;57716;50.896;4.440;2023-02-28T06:09:13;0.10;99.90
70309;DHT22;57716;50.896;4.440;2023-02-28T06:11:39;0.10;99.90
70309;DHT22;57716;50.896;4.440;2023-02-28T06:14:05;0.00;99.90
70309;DHT22;57716;50.896;4.440;2023-02-28T06:16:33;0.00;99.90
70309;DHT22;57716;50.896;4.440;2023-02-28T06:19:02;0.10;99.90
70309;DHT22;57716;50.896;4.440;2023-02-28T06:21:29;0.10;99.90
70309;DHT22;57716;50.896;4.440;2023-02-28T06:23:56;0.20;99.90
70309;DHT22;57716;50.896;4.440;2023-02-28T06:26:22;0.20;99.90
70309;DHT22;57716;50.896;4.440;2023-02-28T06:28:48;0.20;99.90
70309;DHT22;57716;50.896;4.440;2023-02-28T06:31:17;0.20;99.90
70309;DHT22;57716;50.896;4.440;2023-02-28T06:33:45;0.20;99.90
70309;DHT22;57716;50.896;4.440;2023-02-28T06:36:12;0.30;99.90
70309;DHT22;57716;50.896;4.440;2023-02-28T06:38:39;0.30;99.90
70309;DHT22;57716;50.896;4.440;2023-02-28T06:41:07;0.30;99.90
70309;DHT22;57716;50.896;4.440;2023-02-28T06:43:36;0.40;99.90
70309;DHT22;57716;50.896;4.440;2023-02-28T06:46:05;0.40;99.90
70309;DHT22;57716;50.896;4.440;2023-02-28T06:48:31;0.30;99.90
70309;DHT22;57716;50.896;4.440;2023-02-28T06:51:11;0.50;99.90
70309;DHT22;57716;50.896;4.440;2023-02-28T06:53:38;0.40;99.90
70309;DHT22;57716;50.896;4.440;2023-02-28T06:56:12;0.50;99.90
70309;DHT22;57716;50.896;4.440;2023-02-28T06:58:38;0.40;99.90
70309;DHT22;57716;50.896;4.440;2023-02-28T07:01:08;0.40;99.90
70309;DHT22;57716;50.896;4.440;2023-02-28T07:03:35;0.50;99.90
70309;DHT22;57716;50.896;4.440;2023-02-28T07:06:01;0.50;99.90
70309;DHT22;57716;50.896;4.440;2023-02-28T07:08:28;0.50;99.90
70309;DHT22;57716;50.896;4.440;2023-02-28T07:10:57;0.50;99.90
70309;DHT22;57716;50.896;4.440;2023-02-28T07:13:23;0.50;99.90
70309;DHT22;57716;50.896;4.440;2023-02-28T07:15:54;0.60;99.90
70309;DHT22;57716;50.896;4.440;2023-02-28T07:18:20;0.70;99.90
70309;DHT22;57716;50.896;4.440;2023-02-28T07:20:45;0.70;99.90
70309;DHT22;57716;50.896;4.440;2023-02-28T07:23:11;0.80;99.90
70309;DHT22;57716;50.896;4.440;2023-02-28T07:25:37;0.70;99.90
70309;DHT22;57716;50.896;4.440;2023-02-28T07:28:03;0.90;99.90
70309;DHT22;57716;50.896;4.440;2023-02-28T07:30:28;0.70;99.90
70309;DHT22;57716;50.896;4.440;2023-02-28T07:32:54;0.80;99.90
70309;DHT22;57716;50.896;4.440;2023-02-28T07:35:22;0.80;99.90
70309;DHT22;57716;50.896;4.440;2023-02-28T07:37:47;0.90;99.90
70309;DHT22;57716;50.896;4.440;2023-02-28T07:40:14;0.90;99.90
70309;DHT22;57716;50.896;4.440;2023-02-28T07:42:40;0.90;99.90
70309;DHT22;57716;50.896;4.440;2023-02-28T07:45:07;0.90;99.90
70309;DHT22;57716;50.896;4.440;2023-02-28T07:47:33;1.10;99.90
70309;DHT22;57716;50.896;4.440;2023-02-28T07:49:59;1.20;99.90
70309;DHT22;57716;50.896;4.440;2023-02-28T07:52:25;1.30;99.90
70309;DHT22;57716;50.896;4.440;2023-02-28T07:54:51;1.40;99.90
70309;DHT22;57716;50.896;4.440;2023-02-28T07:57:17;1.50;99.90
70309;DHT22;57716;50.896;4.440;2023-02-28T07:59:43;1.70;99.90
70309;DHT22;57716;50.896;4.440;2023-02-28T08:02:16;1.70;99.90
70309;DHT22;57716;50.896;4.440;2023-02-28T08:04:43;1.70;99.90
70309;DHT22;57716;50.896;4.440;2023-02-28T08:07:09;1.90;99.90
70309;DHT22;57716;50.896;4.440;2023-02-28T08:09:39;2.10;99.90
70309;DHT22;57716;50.896;4.440;2023-02-28T08:12:05;2.50;99.90
70309;DHT22;57716;50.896;4.440;2023-02-28T08:14:31;2.40;99.90
70309;DHT22;57716;50.896;4.440;2023-02-28T08:16:56;2.50;99.90
70309;DHT22;57716;50.896;4.440;2023-02-28T08:19:22;2.50;99.90
70309;DHT22;57716;50.896;4.440;2023-02-28T08:21:48;2.60;99.90
70309;DHT22;57716;50.896;4.440;2023-02-28T08:24:14;2.70;99.90
70309;DHT22;57716;50.896;4.440;2023-02-28T08:26:39;2.60;99.90
70309;DHT22;57716;50.896;4.440;2023-02-28T08:29:05;2.60;99.90
70309;DHT22;57716;50.896;4.440;2023-02-28T08:31:31;2.80;99.90
70309;DHT22;57716;50.896;4.440;2023-02-28T08:33:57;2.80;99.90
70309;DHT22;57716;50.896;4.440;2023-02-28T08:36:25;2.70;99.90
70309;DHT22;57716;50.896;4.440;2023-02-28T08:38:51;2.60;99.90
70309;DHT22;57716;50.896;4.440;2023-02-28T08:41:16;2.80;99.90
70309;DHT22;57716;50.896;4.440;2023-02-28T08:43:43;2.80;99.90
70309;DHT22;57716;50.896;4.440;2023-02-28T08:46:12;2.80;99.90
70309;DHT22;57716;50.896;4.440;2023-02-28T08:48:38;2.80;99.90
70309;DHT22;57716;50.896;4.440;2023-02-28T08:51:10;2.90;99.90
70309;DHT22;57716;50.896;4.440;2023-02-28T08:53:37;2.90;99.90
70309;DHT22;57716;50.896;4.440;2023-02-28T08:56:12;2.90;99.90
70309;DHT22;57716;50.896;4.440;2023-02-28T08:58:38;2.80;99.90
70309;DHT22;57716;50.896;4.440;2023-02-28T09:03:38;3.10;99.90
70309;DHT22;57716;50.896;4.440;2023-02-28T09:06:04;3.20;99.90
70309;DHT22;57716;50.896;4.440;2023-02-28T09:08:30;3.40;99.90
70309;DHT22;57716;50.896;4.440;2023-02-28T09:10:57;3.50;99.90
70309;DHT22;57716;50.896;4.440;2023-02-28T09:13:24;3.60;99.90
70309;DHT22;57716;50.896;4.440;2023-02-28T09:15:50;3.40;99.90
70309;DHT22;57716;50.896;4.440;2023-02-28T09:18:16;3.30;99.90
70309;DHT22;57716;50.896;4.440;2023-02-28T09:20:43;3.30;99.90
70309;DHT22;57716;50.896;4.440;2023-02-28T09:23:10;3.30;99.90
70309;DHT22;57716;50.896;4.440;2023-02-28T09:25:36;3.40;99.90
70309;DHT22;57716;50.896;4.440;2023-02-28T09:28:03;3.50;99.90
70309;DHT22;57716;50.896;4.440;2023-02-28T09:30:30;3.60;99.90
70309;DHT22;57716;50.896;4.440;2023-02-28T09:32:56;3.80;99.90
70309;DHT22;57716;50.896;4.440;2023-02-28T09:35:22;3.80;99.90
70309;DHT22;57716;50.896;4.440;2023-02-28T09:37:50;3.80;99.90
70309;DHT22;57716;50.896;4.440;2023-02-28T09:40:17;4.00;99.90
70309;DHT22;57716;50.896;4.440;2023-02-28T09:42:46;3.90;99.90
70309;DHT22;57716;50.896;4.440;2023-02-28T09:45:26;3.80;99.90
70309;DHT22;57716;50.896;4.440;2023-02-28T09:47:57;3.70;99.90
70309;DHT22;57716;50.896;4.440;2023-02-28T09:50:31;3.60;99.90
70309;DHT22;57716;50.896;4.440;2023-02-28T09:52:59;3.70;99.90
70309;DHT22;57716;50.896;4.440;2023-02-28T09:55:39;4.00;99.90
70309;DHT22;57716;50.896;4.440;2023-02-28T09:58:20;4.10;99.30
70309;DHT22;57716;50.896;4.440;2023-02-28T10:00:56;4.00;99.90
70309;DHT22;57716;50.896;4.440;2023-02-28T10:06:18;4.00;97.10
70309;DHT22;57716;50.896;4.440;2023-02-28T10:08:56;4.00;96.00
70309;DHT22;57716;50.896;4.440;2023-02-28T10:11:23;4.10;95.10
70309;DHT22;57716;50.896;4.440;2023-02-28T10:14:16;4.20;93.10
70309;DHT22;57716;50.896;4.440;2023-02-28T10:16:52;4.00;94.90
70309;DHT22;57716;50.896;4.440;2023-02-28T10:22:02;4.20;96.20
70309;DHT22;57716;50.896;4.440;2023-02-28T10:27:23;4.20;86.00
70309;DHT22;57716;50.896;4.440;2023-02-28T10:29:52;4.30;90.00
70309;DHT22;57716;50.896;4.440;2023-02-28T10:32:23;4.30;90.90
70309;DHT22;57716;50.896;4.440;2023-02-28T10:37:46;4.60;81.20
70309;DHT22;57716;50.896;4.440;2023-02-28T10:45:38;4.70;82.50
70309;DHT22;57716;50.896;4.440;2023-02-28T10:48:22;4.30;82.30
70309;DHT22;57716;50.896;4.440;2023-02-28T10:50:51;4.50;88.40
70309;DHT22;57716;50.896;4.440;2023-02-28T10:58:57;5.00;83.40
70309;DHT22;57716;50.896;4.440;2023-02-28T11:01:38;4.80;83.90
70309;DHT22;57716;50.896;4.440;2023-02-28T11:07:00;5.10;82.40
70309;DHT22;57716;50.896;4.440;2023-02-28T11:11:57;5.20;79.80
70309;DHT22;57716;50.896;4.440;2023-02-28T11:14:32;5.30;74.80
70309;DHT22;57716;50.896;4.440;2023-02-28T11:17:27;5.10;86.50
70309;DHT22;57716;50.896;4.440;2023-02-28T11:19:56;5.30;81.70
70309;DHT22;57716;50.896;4.440;2023-02-28T11:22:26;5.50;79.10
70309;DHT22;57716;50.896;4.440;2023-02-28T11:24:56;5.30;76.90
70309;DHT22;57716;50.896;4.440;2023-02-28T11:29:59;5.10;77.80
70309;DHT22;57716;50.896;4.440;2023-02-28T11:32:27;5.40;82.20
70309;DHT22;57716;50.896;4.440;2023-02-28T11:37:35;5.40;81.90
70309;DHT22;57716;50.896;4.440;2023-02-28T11:40:04;5.40;78.10
70309;DHT22;57716;50.896;4.440;2023-02-28T11:48:32;5.60;75.40
70309;DHT22;57716;50.896;4.440;2023-02-28T11:56:23;5.60;70.70
70309;DHT22;57716;50.896;4.440;2023-02-28T12:01:50;5.50;77.90
70309;DHT22;57716;50.896;4.440;2023-02-28T12:04:25;5.70;71.50
70309;DHT22;57716;50.896;4.440;2023-02-28T12:07:15;5.60;73.30
70309;DHT22;57716;50.896;4.440;2023-02-28T12:15:45;6.00;70.60
70309;DHT22;57716;50.896;4.440;2023-02-28T12:18:25;5.90;68.40
70309;DHT22;57716;50.896;4.440;2023-02-28T12:21:04;6.20;66.20
70309;DHT22;57716;50.896;4.440;2023-02-28T12:28:57;6.20;62.80
70309;DHT22;57716;50.896;4.440;2023-02-28T12:31:28;6.10;63.70
70309;DHT22;57716;50.896;4.440;2023-02-28T12:34:00;6.00;66.20
70309;DHT22;57716;50.896;4.440;2023-02-28T12:36:27;6.10;67.10
70309;DHT22;57716;50.896;4.440;2023-02-28T12:39:00;6.20;65.20
70309;DHT22;57716;50.896;4.440;2023-02-28T12:41:42;6.30;65.20
70309;DHT22;57716;50.896;4.440;2023-02-28T12:44:15;6.40;65.40
70309;DHT22;57716;50.896;4.440;2023-02-28T12:46:44;6.30;62.60
70309;DHT22;57716;50.896;4.440;2023-02-28T12:49:19;6.60;62.00
70309;DHT22;57716;50.896;4.440;2023-02-28T12:51:47;6.50;61.90
70309;DHT22;57716;50.896;4.440;2023-02-28T12:54:24;6.30;61.70
70309;DHT22;57716;50.896;4.440;2023-02-28T12:57:12;6.60;61.80
70309;DHT22;57716;50.896;4.440;2023-02-28T12:59:50;6.40;59.60
70309;DHT22;57716;50.896;4.440;2023-02-28T13:02:41;6.40;63.60
70309;DHT22;57716;50.896;4.440;2023-02-28T13:05:32;6.70;59.70
70309;DHT22;57716;50.896;4.440;2023-02-28T13:10:58;6.60;62.20
70309;DHT22;57716;50.896;4.440;2023-02-28T13:13:26;6.40;62.60
70309;DHT22;57716;50.896;4.440;2023-02-28T13:16:06;6.60;66.70
70309;DHT22;57716;50.896;4.440;2023-02-28T13:18:35;6.50;61.90
70309;DHT22;57716;50.896;4.440;2023-02-28T13:21:07;6.40;62.90
70309;DHT22;57716;50.896;4.440;2023-02-28T13:23:40;6.10;62.40
70309;DHT22;57716;50.896;4.440;2023-02-28T13:26:06;6.30;64.70
70309;DHT22;57716;50.896;4.440;2023-02-28T13:31:18;6.70;63.60
70309;DHT22;57716;50.896;4.440;2023-02-28T13:49:27;6.80;62.10
70309;DHT22;57716;50.896;4.440;2023-02-28T14:00:27;7.20;60.00
70309;DHT22;57716;50.896;4.440;2023-02-28T14:03:14;6.90;62.00
70309;DHT22;57716;50.896;4.440;2023-02-28T14:05:41;7.10;60.30
70309;DHT22;57716;50.896;4.440;2023-02-28T14:08:20;7.10;58.40
70309;DHT22;57716;50.896;4.440;2023-02-28T14:10:49;6.80;65.20
70309;DHT22;57716;50.896;4.440;2023-02-28T14:13:41;6.90;64.00
70309;DHT22;57716;50.896;4.440;2023-02-28T14:16:16;6.70;61.80
70309;DHT22;57716;50.896;4.440;2023-02-28T14:19:13;7.00;62.40
70309;DHT22;57716;50.896;4.440;2023-02-28T14:33:26;6.60;61.80
70309;DHT22;57716;50.896;4.440;2023-02-28T14:38:39;6.60;62.30
70309;DHT22;57716;50.896;4.440;2023-02-28T14:41:35;6.70;65.50
70309;DHT22;57716;50.896;4.440;2023-02-28T14:44:19;6.30;66.10
70309;DHT22;57716;50.896;4.440;2023-02-28T14:46:48;6.60;66.80
70309;DHT22;57716;50.896;4.440;2023-02-28T14:54:28;7.20;60.80
70309;DHT22;57716;50.896;4.440;2023-02-28T14:56:54;6.70;64.70
70309;DHT22;57716;50.896;4.440;2023-02-28T14:59:29;6.50;65.80
70309;DHT22;57716;50.896;4.440;2023-02-28T15:02:15;6.40;65.90
70309;DHT22;57716;50.896;4.440;2023-02-28T15:04:41;6.80;67.30
70309;DHT22;57716;50.896;4.440;2023-02-28T15:07:13;7.40;63.90
70309;DHT22;57716;50.896;4.440;2023-02-28T15:09:40;7.80;61.00
70309;DHT22;57716;50.896;4.440;2023-02-28T15:12:06;7.80;61.20
70309;DHT22;57716;50.896;4.440;2023-02-28T15:14:34;7.80;58.40
70309;DHT22;57716;50.896;4.440;2023-02-28T15:17:17;7.90;60.30
70309;DHT22;57716;50.896;4.440;2023-02-28T15:19:49;7.50;59.30
70309;DHT22;57716;50.896;4.440;2023-02-28T15:22:20;7.40;62.00
70309;DHT22;57716;50.896;4.440;2023-02-28T15:24:53;7.50;63.60
70309;DHT22;57716;50.896;4.440;2023-02-28T15:27:26;7.40;61.00
70309;DHT22;57716;50.896;4.440;2023-02-28T15:33:17;6.90;63.40
70309;DHT22;57716;50.896;4.440;2023-02-28T15:35:43;6.60;66.00
70309;DHT22;57716;50.896;4.440;2023-02-28T15:38:24;6.60;64.70
70309;DHT22;57716;50.896;4.440;2023-02-28T15:40:55;6.60;61.90
70309;DHT22;57716;50.896;4.440;2023-02-28T15:43:29;6.60;60.30
70309;DHT22;57716;50.896;4.440;2023-02-28T15:46:01;6.30;63.20
70309;DHT22;57716;50.896;4.440;2023-02-28T15:48:29;6.20;65.00
70309;DHT22;57716;50.896;4.440;2023-02-28T15:51:00;6.30;63.10
70309;DHT22;57716;50.896;4.440;2023-02-28T15:53:32;6.10;63.70
70309;DHT22;57716;50.896;4.440;2023-02-28T15:56:02;6.00;66.30
70309;DHT22;57716;50.896;4.440;2023-02-28T15:58:29;5.80;67.60
70309;DHT22;57716;50.896;4.440;2023-02-28T16:01:05;5.80;67.10
70309;DHT22;57716;50.896;4.440;2023-02-28T16:03:42;5.80;66.50
70309;DHT22;57716;50.896;4.440;2023-02-28T16:06:32;6.00;66.30
70309;DHT22;57716;50.896;4.440;2023-02-28T16:08:58;6.00;68.70
70309;DHT22;57716;50.896;4.440;2023-02-28T16:11:24;6.10;66.60
70309;DHT22;57716;50.896;4.440;2023-02-28T16:13:51;5.70;68.30
70309;DHT22;57716;50.896;4.440;2023-02-28T16:16:20;5.50;70.50
70309;DHT22;57716;50.896;4.440;2023-02-28T16:18:46;5.60;68.50
70309;DHT22;57716;50.896;4.440;2023-02-28T16:21:12;5.70;68.30
70309;DHT22;57716;50.896;4.440;2023-02-28T16:23:38;5.60;69.10
70309;DHT22;57716;50.896;4.440;2023-02-28T16:26:05;5.60;69.80
70309;DHT22;57716;50.896;4.440;2023-02-28T16:28:34;5.60;71.00
70309;DHT22;57716;50.896;4.440;2023-02-28T16:31:00;5.90;70.50
70309;DHT22;57716;50.896;4.440;2023-02-28T16:33:33;5.70;70.20
70309;DHT22;57716;50.896;4.440;2023-02-28T16:35:59;5.50;74.00
70309;DHT22;57716;50.896;4.440;2023-02-28T16:38:25;5.30;73.50
70309;DHT22;57716;50.896;4.440;2023-02-28T16:40:53;5.50;70.80
70309;DHT22;57716;50.896;4.440;2023-02-28T16:43:24;5.20;69.70
70309;DHT22;57716;50.896;4.440;2023-02-28T16:45:55;5.20;71.50
70309;DHT22;57716;50.896;4.440;2023-02-28T16:48:22;5.10;71.10
70309;DHT22;57716;50.896;4.440;2023-02-28T16:50:48;5.00;74.00
70309;DHT22;57716;50.896;4.440;2023-02-28T16:53:13;5.00;73.40
70309;DHT22;57716;50.896;4.440;2023-02-28T16:55:39;4.70;75.00
70309;DHT22;57716;50.896;4.440;2023-02-28T16:58:05;4.70;73.10
70309;DHT22;57716;50.896;4.440;2023-02-28T17:00:32;4.80;75.50
70309;DHT22;57716;50.896;4.440;2023-02-28T17:02:58;4.70;74.30
70309;DHT22;57716;50.896;4.440;2023-02-28T17:05:34;4.60;77.40
70309;DHT22;57716;50.896;4.440;2023-02-28T17:08:02;4.70;75.30
70309;DHT22;57716;50.896;4.440;2023-02-28T17:10:28;4.40;75.70
70309;DHT22;57716;50.896;4.440;2023-02-28T17:12:54;4.30;77.00
70309;DHT22;57716;50.896;4.440;2023-02-28T17:15:20;4.10;79.60
70309;DHT22;57716;50.896;4.440;2023-02-28T17:17:47;4.30;78.20
70309;DHT22;57716;50.896;4.440;2023-02-28T17:20:19;4.20;80.00
70309;DHT22;57716;50.896;4.440;2023-02-28T17:22:48;4.00;80.90
70309;DHT22;57716;50.896;4.440;2023-02-28T17:25:13;3.90;80.80
70309;DHT22;57716;50.896;4.440;2023-02-28T17:27:39;3.80;85.10
70309;DHT22;57716;50.896;4.440;2023-02-28T17:30:26;3.70;83.90
70309;DHT22;57716;50.896;4.440;2023-02-28T17:32:53;3.80;83.90
70309;DHT22;57716;50.896;4.440;2023-02-28T17:35:19;3.70;89.30
70309;DHT22;57716;50.896;4.440;2023-02-28T17:37:45;3.50;90.60
70309;DHT22;57716;50.896;4.440;2023-02-28T17:40:16;3.60;88.80
70309;DHT22;57716;50.896;4.440;2023-02-28T17:42:43;3.60;88.10
70309;DHT22;57716;50.896;4.440;2023-02-28T17:45:10;3.40;91.10
70309;DHT22;57716;50.896;4.440;2023-02-28T17:47:36;3.20;91.10
70309;DHT22;57716;50.896;4.440;2023-02-28T17:50:02;3.00;91.60
70309;DHT22;57716;50.896;4.440;2023-02-28T17:52:27;2.90;92.50
70309;DHT22;57716;50.896;4.440;2023-02-28T17:54:54;2.80;93.50
70309;DHT22;57716;50.896;4.440;2023-02-28T17:57:20;2.70;95.30
70309;DHT22;57716;50.896;4.440;2023-02-28T17:59:46;2.70;96.10
70309;DHT22;57716;50.896;4.440;2023-02-28T18:02:13;2.60;95.90
70309;DHT22;57716;50.896;4.440;2023-02-28T18:04:39;2.60;95.30
70309;DHT22;57716;50.896;4.440;2023-02-28T18:07:06;2.60;96.20
70309;DHT22;57716;50.896;4.440;2023-02-28T18:09:33;2.50;97.00
70309;DHT22;57716;50.896;4.440;2023-02-28T18:11:59;2.50;99.90
70309;DHT22;57716;50.896;4.440;2023-02-28T18:14:25;2.30;99.90
70309;DHT22;57716;50.896;4.440;2023-02-28T18:16:52;2.10;99.90
70309;DHT22;57716;50.896;4.440;2023-02-28T18:19:19;2.00;99.90
70309;DHT22;57716;50.896;4.440;2023-02-28T18:21:48;2.00;99.90
70309;DHT22;57716;50.896;4.440;2023-02-28T18:24:16;1.90;99.90